Time;durP1;ratioP1;P1;durP2;ratioP2;P2;SDS_P1;SDS_P2;PMS_P1;PMS_P2;Temp;Humidity;BMP_temperature;BMP_pressure;BME280_temperature;BME280_humidity;BME280_pressure;Samples;Min_cycle;Max_cycle;Signal;HPM_P1;HPM_P2
2022/04/04 00:01:19;;;;;;;68.97;11.75;;;;;;;;;;5093963;28;20583;-69
2022/04/04 00:03:47;;;;;;;69.15;12.30;;;;;;;;;;5093684;28;20624;-69
2022/04/04 00:06:14;;;;;;;69.72;11.40;;;;;;;;;;5093945;28;20290;-69
2022/04/04 00:08:41;;;;;;;70.13;12.80;;;;;;;;;;5093057;28;20226;-69
2022/04/04 00:11:09;;;;;;;70.57;12.90;;;;;;;;;;5093806;28;20200;-70
2022/04/04 00:13:36;;;;;;;70.28;14.02;;;;;;;;;;5092809;28;20226;-69
2022/04/04 00:16:03;;;;;;;69.90;11.82;;;;;;;;;;5090128;28;20304;-70
2022/04/04 00:18:30;;;;;;;72.82;12.55;;;;;;;;;;5092464;28;20224;-70
2022/04/04 00:20:59;;;;;;;68.45;11.00;;;;;;;;;;5093562;28;20227;-70
2022/04/04 00:23:26;;;;;;;67.70;11.25;;;;;;;;;;5093428;28;20309;-70
2022/04/04 00:25:53;;;;;;;73.93;13.23;;;;;;;;;;5093533;28;20204;-70
2022/04/04 00:28:20;;;;;;;72.82;13.05;;;;;;;;;;5092643;28;20224;-70
2022/04/04 00:30:47;;;;;;;70.32;11.48;;;;;;;;;;5093228;28;20212;-70
2022/04/04 00:33:14;;;;;;;68.40;11.10;;;;;;;;;;5093106;28;20298;-69
2022/04/04 00:35:42;;;;;;;71.05;11.90;;;;;;;;;;5092919;28;20295;-70
2022/04/04 00:38:11;;;;;;;72.30;11.98;;;;;;;;;;5092246;28;20316;-70
2022/04/04 00:40:38;;;;;;;69.10;12.38;;;;;;;;;;5093223;28;20208;-70
2022/04/04 00:43:05;;;;;;;68.13;11.60;;;;;;;;;;5092950;28;20208;-70
2022/04/04 00:45:33;;;;;;;75.70;13.48;;;;;;;;;;5092877;28;20208;-69
2022/04/04 00:48:00;;;;;;;69.43;13.13;;;;;;;;;;5089075;28;20328;-70
2022/04/04 00:50:27;;;;;;;69.80;14.02;;;;;;;;;;5091992;28;20208;-70
2022/04/04 00:52:54;;;;;;;71.18;12.43;;;;;;;;;;5092766;28;20295;-70
2022/04/04 00:55:23;;;;;;;70.65;12.63;;;;;;;;;;5092700;28;20213;-69
2022/04/04 00:57:50;;;;;;;77.13;14.10;;;;;;;;;;5092024;28;20403;-70
2022/04/04 01:00:19;;;;;;;75.57;13.02;;;;;;;;;;5093165;28;20239;-70
2022/04/04 01:02:47;;;;;;;69.55;11.80;;;;;;;;;;5092687;28;20235;-69
2022/04/04 01:05:14;;;;;;;69.47;11.82;;;;;;;;;;5093270;28;20204;-70
2022/04/04 01:07:41;;;;;;;70.50;11.68;;;;;;;;;;5092378;28;20632;-70
2022/04/04 01:10:09;;;;;;;71.18;12.00;;;;;;;;;;5092874;28;20207;-69
2022/04/04 01:12:38;;;;;;;72.28;13.18;;;;;;;;;;5092098;28;20215;-69
2022/04/04 01:15:06;;;;;;;72.07;11.63;;;;;;;;;;5092316;28;20239;-68
2022/04/04 01:17:33;;;;;;;70.60;11.80;;;;;;;;;;5091972;28;20291;-70
2022/04/04 01:20:00;;;;;;;70.10;11.60;;;;;;;;;;5082136;28;20570;-71
2022/04/04 01:22:27;;;;;;;70.72;11.77;;;;;;;;;;5073374;28;20296;-70
2022/04/04 01:24:59;;;;;;;71.80;12.82;;;;;;;;;;5073850;28;20237;-70
2022/04/04 01:27:26;;;;;;;70.03;11.48;;;;;;;;;;5072996;28;20229;-70
2022/04/04 01:29:53;;;;;;;74.50;14.27;;;;;;;;;;5072337;28;20681;-70
2022/04/04 01:32:21;;;;;;;76.75;14.85;;;;;;;;;;5072492;28;20667;-70
2022/04/04 01:34:48;;;;;;;77.63;13.93;;;;;;;;;;5071500;28;20211;-69
2022/04/04 01:37:15;;;;;;;75.85;13.70;;;;;;;;;;5070741;28;20247;-70
2022/04/04 01:39:43;;;;;;;73.25;13.80;;;;;;;;;;5072198;28;20312;-69
2022/04/04 01:42:11;;;;;;;73.22;14.75;;;;;;;;;;5072034;28;20244;-68
2022/04/04 01:44:38;;;;;;;72.60;13.10;;;;;;;;;;5072137;28;20556;-70
2022/04/04 01:47:06;;;;;;;72.00;14.40;;;;;;;;;;5071753;28;20231;-70
2022/04/04 01:49:33;;;;;;;71.35;13.90;;;;;;;;;;5071553;28;20217;-70
2022/04/04 01:52:00;;;;;;;71.82;13.70;;;;;;;;;;5069237;28;20762;-68
2022/04/04 01:54:27;;;;;;;74.63;14.80;;;;;;;;;;5072050;28;20217;-70
2022/04/04 01:56:54;;;;;;;72.25;12.73;;;;;;;;;;5071693;28;20222;-69
2022/04/04 01:59:23;;;;;;;73.47;12.88;;;;;;;;;;5080605;28;20228;-70
2022/04/04 02:01:51;;;;;;;72.85;12.70;;;;;;;;;;5091924;28;20200;-69
2022/04/04 02:04:18;;;;;;;74.57;13.35;;;;;;;;;;5092054;28;20200;-70
2022/04/04 02:06:46;;;;;;;74.15;14.80;;;;;;;;;;5093008;28;20255;-69
2022/04/04 02:09:13;;;;;;;68.28;11.65;;;;;;;;;;5092040;28;20779;-69
2022/04/04 02:11:40;;;;;;;74.07;13.13;;;;;;;;;;5092827;28;20210;-70
2022/04/04 02:14:07;;;;;;;71.95;13.18;;;;;;;;;;5092282;28;20208;-70
2022/04/04 02:16:36;;;;;;;72.53;13.32;;;;;;;;;;5092224;28;20196;-70
2022/04/04 02:19:03;;;;;;;75.55;13.60;;;;;;;;;;5091727;28;20228;-70
2022/04/04 02:21:30;;;;;;;69.53;12.25;;;;;;;;;;5092565;28;20211;-69
2022/04/04 02:23:57;;;;;;;77.10;13.60;;;;;;;;;;5091140;28;20204;-68
2022/04/04 02:26:24;;;;;;;72.45;12.50;;;;;;;;;;5092398;28;20578;-70
2022/04/04 02:28:51;;;;;;;74.40;12.63;;;;;;;;;;5092176;28;20255;-69
2022/04/04 02:31:19;;;;;;;73.55;12.48;;;;;;;;;;5092666;28;20295;-69
2022/04/04 02:33:47;;;;;;;74.70;12.25;;;;;;;;;;5092187;28;20620;-70
2022/04/04 02:36:14;;;;;;;74.05;12.65;;;;;;;;;;5091581;28;20299;-70
2022/04/04 02:38:41;;;;;;;69.18;12.40;;;;;;;;;;5091150;28;20232;-70
2022/04/04 02:41:09;;;;;;;70.95;12.30;;;;;;;;;;5092737;28;20200;-70
2022/04/04 02:43:36;;;;;;;68.03;11.23;;;;;;;;;;5093639;28;20208;-70
2022/04/04 02:46:03;;;;;;;70.60;11.85;;;;;;;;;;5094067;28;20331;-70
2022/04/04 02:48:30;;;;;;;70.10;11.82;;;;;;;;;;5094319;28;20700;-69
2022/04/04 02:50:59;;;;;;;67.43;11.38;;;;;;;;;;5094203;28;20715;-70
2022/04/04 02:53:26;;;;;;;71.13;11.55;;;;;;;;;;5093868;28;20646;-69
2022/04/04 02:58:38;;;;;;;69.57;10.48;;;;;;;;;;5088871;28;20273;-68
2022/04/04 03:01:05;;;;;;;72.55;12.45;;;;;;;;;;5093730;28;20331;-71
2022/04/04 03:03:32;;;;;;;71.43;11.73;;;;;;;;;;5094411;28;20707;-70
2022/04/04 03:06:00;;;;;;;67.43;10.10;;;;;;;;;;5094023;28;20269;-70
2022/04/04 03:08:28;;;;;;;70.93;11.40;;;;;;;;;;5093956;28;20291;-70
2022/04/04 03:10:55;;;;;;;69.05;11.35;;;;;;;;;;5101173;28;20243;-70
2022/04/04 03:13:22;;;;;;;67.10;11.15;;;;;;;;;;5105137;28;20225;-70
2022/04/04 03:15:49;;;;;;;68.20;10.50;;;;;;;;;;5110001;28;20235;-70
2022/04/04 03:18:16;;;;;;;70.45;11.25;;;;;;;;;;5107662;28;20285;-69
2022/04/04 03:20:43;;;;;;;70.40;11.63;;;;;;;;;;5112818;28;20224;-70
2022/04/04 03:23:12;;;;;;;69.00;11.18;;;;;;;;;;5112820;28;20216;-70
2022/04/04 03:25:39;;;;;;;67.88;11.20;;;;;;;;;;5112483;28;20212;-70
2022/04/04 03:28:07;;;;;;;70.25;11.15;;;;;;;;;;5111897;28;20251;-69
2022/04/04 03:30:34;;;;;;;67.53;10.93;;;;;;;;;;5094473;28;20231;-70
2022/04/04 03:33:03;;;;;;;72.68;12.68;;;;;;;;;;5096946;28;20307;-71
2022/04/04 03:35:31;;;;;;;67.07;10.52;;;;;;;;;;5098199;28;20238;-68
2022/04/04 03:37:59;;;;;;;71.13;11.75;;;;;;;;;;5093202;28;20311;-71
2022/04/04 03:40:28;;;;;;;71.75;10.35;;;;;;;;;;5093920;28;20792;-68
2022/04/04 03:42:56;;;;;;;72.78;12.32;;;;;;;;;;5108491;28;20200;-70
2022/04/04 03:45:24;;;;;;;71.97;12.73;;;;;;;;;;5099720;28;20299;-72
2022/04/04 03:47:51;;;;;;;76.20;13.13;;;;;;;;;;5095379;28;20228;-71
2022/04/04 03:50:20;;;;;;;70.78;13.07;;;;;;;;;;5097990;28;20204;-71
2022/04/04 03:52:48;;;;;;;68.80;11.07;;;;;;;;;;5095992;28;20693;-71
2022/04/04 03:55:17;;;;;;;71.00;12.05;;;;;;;;;;5094967;28;20200;-72
2022/04/04 03:57:48;;;;;;;76.32;13.73;;;;;;;;;;5095371;28;20712;-71
2022/04/04 04:00:15;;;;;;;69.43;11.50;;;;;;;;;;5091699;28;20570;-69
2022/04/04 04:02:43;;;;;;;67.88;11.85;;;;;;;;;;5077346;28;20634;-70
2022/04/04 04:05:10;;;;;;;67.68;10.70;;;;;;;;;;5079403;28;20661;-71
2022/04/04 04:07:37;;;;;;;76.35;14.80;;;;;;;;;;5075832;28;20509;-71
2022/04/04 04:10:05;;;;;;;70.22;11.68;;;;;;;;;;5074268;28;20215;-70
2022/04/04 04:12:32;;;;;;;72.47;12.68;;;;;;;;;;5075635;28;20216;-70
2022/04/04 04:15:03;;;;;;;72.63;12.50;;;;;;;;;;5074397;28;20211;-70
2022/04/04 04:17:30;;;;;;;69.30;11.32;;;;;;;;;;5072934;28;20236;-70
2022/04/04 04:22:42;;;;;;;73.55;14.23;;;;;;;;;;5074195;28;20289;-70
2022/04/04 04:25:10;;;;;;;69.90;12.00;;;;;;;;;;5073271;28;20211;-70
2022/04/04 04:27:37;;;;;;;70.45;12.07;;;;;;;;;;5073015;28;20593;-70
2022/04/04 04:30:06;;;;;;;74.38;13.07;;;;;;;;;;5073766;28;20209;-69
2022/04/04 04:32:33;;;;;;;73.07;13.23;;;;;;;;;;5078789;28;20283;-70
2022/04/04 04:35:01;;;;;;;71.78;12.30;;;;;;;;;;5093574;28;20204;-70
2022/04/04 04:37:28;;;;;;;73.90;13.00;;;;;;;;;;5093211;28;20235;-70
2022/04/04 04:39:55;;;;;;;71.63;13.27;;;;;;;;;;5093390;28;20220;-70
2022/04/04 04:42:22;;;;;;;72.68;13.10;;;;;;;;;;5093679;28;20212;-69
2022/04/04 04:44:50;;;;;;;75.15;15.20;;;;;;;;;;5093146;28;20207;-71
2022/04/04 04:47:18;;;;;;;73.63;13.38;;;;;;;;;;5092472;28;20224;-70
2022/04/04 04:49:48;;;;;;;71.47;13.55;;;;;;;;;;5092895;28;20211;-71
2022/04/04 04:52:15;;;;;;;69.47;12.85;;;;;;;;;;5093006;28;20208;-70
2022/04/04 04:54:42;;;;;;;73.63;13.18;;;;;;;;;;5092759;28;20703;-71
2022/04/04 04:57:10;;;;;;;72.57;13.60;;;;;;;;;;5091880;28;20735;-65
2022/04/04 04:59:37;;;;;;;71.65;14.18;;;;;;;;;;5092432;28;20295;-69
2022/04/04 05:02:04;;;;;;;74.22;13.15;;;;;;;;;;5097290;28;20295;-70
2022/04/04 05:04:33;;;;;;;79.47;15.77;;;;;;;;;;5089741;28;20211;-70
2022/04/04 05:07:00;;;;;;;76.32;13.82;;;;;;;;;;5094147;28;20234;-70
2022/04/04 05:09:27;;;;;;;77.30;15.32;;;;;;;;;;5092536;28;20204;-70
2022/04/04 05:11:54;;;;;;;72.50;13.52;;;;;;;;;;5093093;28;20204;-70
2022/04/04 05:14:21;;;;;;;80.28;15.98;;;;;;;;;;5094027;28;20200;-68
2022/04/04 05:16:49;;;;;;;74.03;14.27;;;;;;;;;;5095849;28;20206;-69
2022/04/04 05:19:18;;;;;;;76.78;15.77;;;;;;;;;;5108161;28;20703;-69
2022/04/04 05:21:46;;;;;;;73.63;15.25;;;;;;;;;;5107375;28;20251;-70
2022/04/04 05:24:13;;;;;;;73.72;14.55;;;;;;;;;;5106319;28;20242;-70
2022/04/04 05:26:41;;;;;;;76.93;16.40;;;;;;;;;;5107904;28;20196;-69
2022/04/04 05:29:08;;;;;;;76.15;14.77;;;;;;;;;;5110081;28;20201;-68
2022/04/04 05:31:36;;;;;;;75.45;14.70;;;;;;;;;;5113408;28;20781;-70
2022/04/04 05:34:04;;;;;;;76.28;15.88;;;;;;;;;;5110417;28;20208;-70
2022/04/04 05:36:31;;;;;;;77.25;15.65;;;;;;;;;;5088327;28;20213;-70
2022/04/04 05:39:00;;;;;;;80.07;15.65;;;;;;;;;;5071698;28;20311;-70
2022/04/04 05:41:27;;;;;;;81.38;17.40;;;;;;;;;;5072271;28;20229;-70
2022/04/04 05:43:55;;;;;;;76.90;16.13;;;;;;;;;;5073230;28;20209;-70
2022/04/04 05:46:22;;;;;;;75.85;14.40;;;;;;;;;;5072071;28;20227;-67
2022/04/04 05:48:49;;;;;;;79.88;16.02;;;;;;;;;;5071318;28;20735;-70
2022/04/04 05:51:17;;;;;;;76.80;15.30;;;;;;;;;;5073392;28;20197;-70
2022/04/04 05:53:44;;;;;;;79.22;16.30;;;;;;;;;;5071931;28;20209;-69
2022/04/04 05:56:13;;;;;;;76.82;15.40;;;;;;;;;;5072265;28;20740;-71
2022/04/04 05:58:41;;;;;;;73.88;14.65;;;;;;;;;;5071478;28;20225;-71
2022/04/04 06:01:09;;;;;;;76.93;15.00;;;;;;;;;;5071402;28;20228;-70
2022/04/04 06:03:36;;;;;;;77.85;14.32;;;;;;;;;;5072771;28;20691;-70
2022/04/04 06:06:04;;;;;;;75.03;14.95;;;;;;;;;;5074203;28;20193;-70
2022/04/04 06:08:31;;;;;;;75.18;15.13;;;;;;;;;;5071864;28;20633;-69
2022/04/04 06:10:58;;;;;;;73.65;14.65;;;;;;;;;;5093311;28;20214;-71
2022/04/04 06:13:27;;;;;;;82.60;16.27;;;;;;;;;;5093295;28;20204;-70
2022/04/04 06:15:54;;;;;;;77.03;15.77;;;;;;;;;;5106889;28;20555;-71
2022/04/04 06:18:22;;;;;;;75.47;15.35;;;;;;;;;;5107151;28;20250;-70
2022/04/04 06:20:49;;;;;;;74.45;14.90;;;;;;;;;;5108740;28;20248;-70
2022/04/04 06:23:16;;;;;;;76.07;15.30;;;;;;;;;;5109961;28;20196;-70
2022/04/04 06:25:48;;;;;;;76.97;14.68;;;;;;;;;;5110543;28;20669;-68
2022/04/04 06:28:15;;;;;;;73.35;14.40;;;;;;;;;;5112957;28;20226;-70
2022/04/04 06:30:44;;;;;;;70.93;13.57;;;;;;;;;;5109044;28;20195;-71
2022/04/04 06:33:11;;;;;;;75.40;16.30;;;;;;;;;;5103685;28;20648;-72
2022/04/04 06:35:38;;;;;;;73.50;14.98;;;;;;;;;;5104374;28;20188;-70
2022/04/04 06:38:05;;;;;;;70.28;13.63;;;;;;;;;;5090975;28;20268;-69
2022/04/04 06:40:33;;;;;;;75.60;14.32;;;;;;;;;;5083863;28;20331;-70
2022/04/04 06:43:00;;;;;;;71.22;13.00;;;;;;;;;;5071586;28;20201;-69
2022/04/04 06:45:27;;;;;;;75.55;13.70;;;;;;;;;;5071172;28;20304;-70
2022/04/04 06:47:55;;;;;;;75.63;14.27;;;;;;;;;;5070949;28;20256;-69
2022/04/04 06:50:23;;;;;;;74.03;14.65;;;;;;;;;;5075416;28;20204;-72
2022/04/04 06:52:52;;;;;;;77.47;14.70;;;;;;;;;;5075116;28;20213;-70
2022/04/04 06:55:19;;;;;;;76.95;14.60;;;;;;;;;;5075211;28;20670;-70
2022/04/04 06:57:47;;;;;;;77.03;14.65;;;;;;;;;;5073938;28;20713;-70
2022/04/04 07:00:16;;;;;;;76.25;14.40;;;;;;;;;;5075016;28;20232;-68
2022/04/04 07:02:43;;;;;;;72.32;13.55;;;;;;;;;;5075008;28;20270;-70
2022/04/04 07:05:12;;;;;;;69.68;12.93;;;;;;;;;;5075132;28;20296;-70
2022/04/04 07:07:39;;;;;;;70.32;12.90;;;;;;;;;;5074405;28;20667;-70
2022/04/04 07:10:06;;;;;;;70.57;12.05;;;;;;;;;;5074791;28;20208;-70
2022/04/04 07:12:34;;;;;;;71.38;11.88;;;;;;;;;;5080254;28;20205;-70
2022/04/04 07:15:02;;;;;;;68.60;12.27;;;;;;;;;;5095615;28;20204;-71
2022/04/04 07:17:30;;;;;;;70.85;11.57;;;;;;;;;;5094513;28;20268;-71
2022/04/04 07:19:57;;;;;;;86.75;12.38;;;;;;;;;;5099680;28;20204;-69
2022/04/04 07:22:25;;;;;;;68.28;10.95;;;;;;;;;;5102681;28;20243;-71
2022/04/04 07:24:52;;;;;;;66.95;11.07;;;;;;;;;;5097406;28;20200;-71
2022/04/04 07:27:20;;;;;;;68.85;11.18;;;;;;;;;;5094640;28;20263;-71
2022/04/04 07:29:47;;;;;;;67.47;10.52;;;;;;;;;;5095852;28;20208;-69
2022/04/04 07:32:14;;;;;;;69.65;11.27;;;;;;;;;;5095831;28;20200;-67
2022/04/04 07:34:41;;;;;;;67.72;10.43;;;;;;;;;;5095398;28;20677;-69
2022/04/04 07:37:08;;;;;;;71.10;11.35;;;;;;;;;;5094462;28;20780;-71
2022/04/04 07:39:37;;;;;;;67.43;9.63;;;;;;;;;;5094381;28;20291;-71
2022/04/04 07:42:05;;;;;;;67.05;9.82;;;;;;;;;;5094285;28;20727;-71
2022/04/04 07:44:33;;;;;;;67.15;10.55;;;;;;;;;;5079691;28;20209;-71
2022/04/04 07:47:00;;;;;;;66.45;9.82;;;;;;;;;;5074471;28;20229;-71
2022/04/04 07:49:27;;;;;;;70.78;10.10;;;;;;;;;;5073186;28;20227;-72
2022/04/04 07:51:54;;;;;;;72.75;10.93;;;;;;;;;;5075193;28;20200;-71
2022/04/04 07:54:21;;;;;;;65.75;10.23;;;;;;;;;;5075465;28;20635;-71
2022/04/04 07:56:53;;;;;;;68.57;9.95;;;;;;;;;;5075132;28;20669;-71
2022/04/04 07:59:20;;;;;;;66.35;9.82;;;;;;;;;;5073728;28;20205;-71
2022/04/04 08:01:48;;;;;;;70.47;10.05;;;;;;;;;;5074867;28;20233;-71
2022/04/04 08:04:15;;;;;;;65.85;10.20;;;;;;;;;;5074548;28;20670;-71
2022/04/04 08:06:42;;;;;;;67.85;9.45;;;;;;;;;;5074635;28;20208;-70
2022/04/04 08:09:09;;;;;;;68.00;9.43;;;;;;;;;;5073899;28;20237;-70
2022/04/04 08:11:36;;;;;;;66.15;8.60;;;;;;;;;;5074992;28;20288;-70
2022/04/04 08:14:08;;;;;;;66.38;9.63;;;;;;;;;;5074518;28;20231;-71
2022/04/04 08:16:35;;;;;;;66.20;9.77;;;;;;;;;;5071791;28;20209;-70
2022/04/04 08:19:02;;;;;;;69.38;9.52;;;;;;;;;;5073575;28;20493;-71
2022/04/04 08:21:29;;;;;;;65.53;9.38;;;;;;;;;;5073727;28;20232;-71
2022/04/04 08:23:57;;;;;;;73.45;9.73;;;;;;;;;;5088073;28;20206;-71
2022/04/04 08:26:24;;;;;;;68.32;9.00;;;;;;;;;;5094022;28;20557;-71
2022/04/04 08:28:51;;;;;;;62.63;7.93;;;;;;;;;;5093255;28;20224;-71
2022/04/04 08:31:20;;;;;;;68.40;9.18;;;;;;;;;;5094193;28;20636;-69
2022/04/04 08:33:47;;;;;;;63.58;7.60;;;;;;;;;;5093720;28;20707;-71
2022/04/04 08:36:14;;;;;;;63.80;8.25;;;;;;;;;;5093839;28;20376;-71
2022/04/04 08:38:41;;;;;;;66.68;8.45;;;;;;;;;;5092628;28;20234;-71
2022/04/04 08:41:10;;;;;;;65.43;7.80;;;;;;;;;;5093180;28;20234;-71
2022/04/04 08:43:38;;;;;;;65.95;9.07;;;;;;;;;;5093110;28;20300;-70
2022/04/04 08:46:06;;;;;;;66.25;9.52;;;;;;;;;;5093512;28;20295;-70
2022/04/04 08:48:36;;;;;;;66.63;8.95;;;;;;;;;;5091717;28;20232;-71
2022/04/04 08:51:03;;;;;;;65.68;7.50;;;;;;;;;;5093796;28;20230;-71
2022/04/04 08:53:30;;;;;;;64.88;8.40;;;;;;;;;;5089729;28;20204;-71
2022/04/04 08:55:58;;;;;;;65.75;9.98;;;;;;;;;;5093222;28;20736;-71
2022/04/04 08:58:25;;;;;;;67.57;9.60;;;;;;;;;;5092181;28;20224;-71
2022/04/04 09:00:53;;;;;;;69.47;9.60;;;;;;;;;;5092593;28;20205;-71
2022/04/04 09:03:22;;;;;;;65.60;7.65;;;;;;;;;;5093021;28;20231;-71
2022/04/04 09:05:54;;;;;;;63.65;8.15;;;;;;;;;;5092877;28;20691;-69
2022/04/04 09:08:21;;;;;;;66.65;8.88;;;;;;;;;;5092279;28;20311;-72
2022/04/04 09:10:49;;;;;;;64.15;7.53;;;;;;;;;;5092692;28;20703;-71
2022/04/04 09:13:17;;;;;;;63.17;7.57;;;;;;;;;;5092075;28;20205;-70
2022/04/04 09:15:54;;;;;;;66.05;8.32;;;;;;;;;;5093152;28;20206;-70
2022/04/04 09:18:25;;;;;;;63.92;7.05;;;;;;;;;;5092437;28;20306;-72
2022/04/04 09:20:54;;;;;;;67.43;7.43;;;;;;;;;;5093022;28;20246;-71
2022/04/04 09:23:21;;;;;;;61.95;6.85;;;;;;;;;;5092050;28;20219;-71
2022/04/04 09:25:48;;;;;;;61.50;6.63;;;;;;;;;;5092159;28;20240;-72
2022/04/04 09:28:16;;;;;;;62.03;7.05;;;;;;;;;;5092667;28;20714;-74
2022/04/04 09:30:44;;;;;;;63.83;7.68;;;;;;;;;;5093059;28;20211;-72
2022/04/04 09:33:13;;;;;;;63.58;6.65;;;;;;;;;;5093180;28;20200;-71
2022/04/04 09:35:52;;;;;;;64.18;7.28;;;;;;;;;;5092775;28;20672;-72
2022/04/04 09:38:20;;;;;;;66.70;6.80;;;;;;;;;;5091831;28;20228;-71
2022/04/04 09:40:47;;;;;;;63.10;7.05;;;;;;;;;;5092838;28;20224;-71
2022/04/04 09:43:15;;;;;;;63.90;6.63;;;;;;;;;;5092500;28;20733;-71
2022/04/04 09:45:44;;;;;;;63.08;6.95;;;;;;;;;;5092383;28;20251;-70
2022/04/04 09:48:12;;;;;;;63.03;7.40;;;;;;;;;;5091553;28;20226;-69
2022/04/04 09:50:41;;;;;;;63.20;7.18;;;;;;;;;;5092065;28;20213;-69
2022/04/04 09:53:10;;;;;;;62.33;7.05;;;;;;;;;;5092646;28;20226;-70
2022/04/04 09:55:39;;;;;;;64.45;6.80;;;;;;;;;;5092267;28;20248;-70
2022/04/04 09:58:08;;;;;;;62.90;7.20;;;;;;;;;;5091428;28;20320;-71
2022/04/04 10:00:36;;;;;;;61.50;6.43;;;;;;;;;;5092047;28;20565;-70
2022/04/04 10:03:05;;;;;;;61.17;6.33;;;;;;;;;;5091991;28;20511;-70
2022/04/04 10:05:32;;;;;;;62.07;6.57;;;;;;;;;;5092260;28;20453;-70
2022/04/04 10:07:59;;;;;;;62.80;6.50;;;;;;;;;;5091574;28;20473;-69
2022/04/04 10:10:27;;;;;;;62.03;6.20;;;;;;;;;;5092021;28;20452;-71
2022/04/04 10:12:56;;;;;;;63.33;6.97;;;;;;;;;;5092255;28;21011;-71
2022/04/04 10:15:25;;;;;;;63.40;7.60;;;;;;;;;;5091885;28;20464;-69
2022/04/04 10:17:53;;;;;;;62.80;6.70;;;;;;;;;;5091021;28;20466;-70
2022/04/04 10:20:21;;;;;;;64.60;7.10;;;;;;;;;;5091995;28;20973;-71
2022/04/04 10:22:50;;;;;;;61.10;6.83;;;;;;;;;;5092793;28;20853;-69
2022/04/04 10:25:18;;;;;;;63.07;6.20;;;;;;;;;;5096138;28;20446;-70
2022/04/04 10:27:47;;;;;;;63.97;6.90;;;;;;;;;;5095518;28;20567;-71
2022/04/04 10:30:16;;;;;;;62.00;6.90;;;;;;;;;;5096204;28;20448;-71
2022/04/04 10:32:51;;;;;;;62.40;6.83;;;;;;;;;;5096187;28;20505;-72
2022/04/04 10:35:21;;;;;;;62.57;7.10;;;;;;;;;;5096321;28;20987;-70
2022/04/04 10:37:48;;;;;;;62.63;6.83;;;;;;;;;;5095505;28;20477;-72
2022/04/04 10:40:23;;;;;;;61.67;6.90;;;;;;;;;;5096947;28;20447;-72
2022/04/04 10:43:02;;;;;;;61.70;6.90;;;;;;;;;;5099212;28;20479;-70
2022/04/04 10:45:31;;;;;;;62.10;7.30;;;;;;;;;;5096839;28;20449;-72
2022/04/04 10:48:06;;;;;;;61.67;7.40;;;;;;;;;;5099279;28;20464;-71
2022/04/04 10:50:35;;;;;;;61.20;6.57;;;;;;;;;;5097905;28;20503;-72
2022/04/04 10:53:03;;;;;;;61.43;6.50;;;;;;;;;;5096158;28;20502;-72
2022/04/04 10:55:31;;;;;;;61.60;7.17;;;;;;;;;;5095542;28;20456;-70
2022/04/04 10:57:59;;;;;;;63.90;7.07;;;;;;;;;;5094845;28;21036;-70
2022/04/04 11:00:34;;;;;;;63.90;7.67;;;;;;;;;;5095207;28;20458;-70
2022/04/04 11:03:02;;;;;;;61.17;6.23;;;;;;;;;;5095257;28;20538;-72
2022/04/04 11:08:22;;;;;;;62.20;7.63;;;;;;;;;;5095812;28;20584;-71
2022/04/04 11:10:53;;;;;;;63.27;7.57;;;;;;;;;;5095331;28;20962;-71
2022/04/04 11:13:21;;;;;;;62.80;7.20;;;;;;;;;;5095534;28;20445;-71
2022/04/04 11:15:53;;;;;;;62.30;7.20;;;;;;;;;;5095225;28;20461;-72
2022/04/04 11:18:21;;;;;;;68.07;7.43;;;;;;;;;;5094350;28;20466;-71
2022/04/04 11:20:50;;;;;;;64.27;7.47;;;;;;;;;;5094859;28;20452;-71
2022/04/04 11:23:17;;;;;;;61.00;6.57;;;;;;;;;;5094869;28;20808;-71
2022/04/04 11:25:52;;;;;;;64.50;7.17;;;;;;;;;;5095008;28;20974;-71
2022/04/04 11:28:22;;;;;;;62.47;7.10;;;;;;;;;;5095673;28;20465;-71
2022/04/04 11:30:52;;;;;;;64.80;7.80;;;;;;;;;;5095866;28;20468;-71
2022/04/04 11:33:22;;;;;;;62.10;7.30;;;;;;;;;;5095817;28;20525;-72
2022/04/04 11:35:50;;;;;;;62.63;6.40;;;;;;;;;;5094936;28;20823;-72
2022/04/04 11:38:19;;;;;;;61.10;6.17;;;;;;;;;;5094754;28;20471;-71
2022/04/04 11:40:52;;;;;;;61.47;6.80;;;;;;;;;;5094892;28;20504;-72
2022/04/04 11:43:21;;;;;;;60.37;5.60;;;;;;;;;;5095639;28;20575;-69
2022/04/04 11:45:49;;;;;;;61.07;5.70;;;;;;;;;;5095600;28;20462;-72
2022/04/04 11:48:23;;;;;;;60.43;5.60;;;;;;;;;;5094863;28;20472;-72
2022/04/04 11:50:56;;;;;;;61.73;5.37;;;;;;;;;;5096099;28;20881;-72
2022/04/04 11:53:25;;;;;;;60.97;5.73;;;;;;;;;;5094678;28;20450;-72
2022/04/04 11:55:56;;;;;;;60.77;5.70;;;;;;;;;;5094300;28;20447;-71
2022/04/04 11:58:25;;;;;;;60.00;5.60;;;;;;;;;;5093583;28;20502;-72
2022/04/04 12:00:55;;;;;;;61.27;5.73;;;;;;;;;;5094182;28;20450;-72
2022/04/04 12:03:24;;;;;;;60.40;6.00;;;;;;;;;;5094094;28;20487;-72
2022/04/04 12:05:53;;;;;;;60.43;5.90;;;;;;;;;;5094136;28;20861;-72
2022/04/04 12:08:21;;;;;;;61.17;6.27;;;;;;;;;;5093122;28;20505;-72
2022/04/04 12:10:49;;;;;;;62.20;6.30;;;;;;;;;;5093718;28;20796;-72
2022/04/04 12:13:18;;;;;;;60.50;5.93;;;;;;;;;;5093990;28;20872;-71
2022/04/04 12:15:45;;;;;;;61.17;6.67;;;;;;;;;;5093771;28;20506;-71
2022/04/04 12:18:13;;;;;;;60.97;6.17;;;;;;;;;;5093173;28;20473;-71
2022/04/04 12:20:42;;;;;;;62.40;7.10;;;;;;;;;;5094008;28;20597;-71
2022/04/04 12:25:56;;;;;;;62.90;6.20;;;;;;;;;;5093701;28;20420;-71
2022/04/04 12:28:25;;;;;;;61.27;5.93;;;;;;;;;;5092909;28;20462;-72
2022/04/04 12:30:52;;;;;;;62.03;5.87;;;;;;;;;;5094069;28;20554;-72
2022/04/04 12:33:19;;;;;;;60.40;5.80;;;;;;;;;;5093410;28;20963;-71
2022/04/04 12:35:49;;;;;;;61.70;5.43;;;;;;;;;;5093434;28;20966;-72
2022/04/04 12:38:26;;;;;;;60.10;5.27;;;;;;;;;;5092779;28;20560;-72
2022/04/04 12:41:02;;;;;;;61.40;6.00;;;;;;;;;;5093526;28;20446;-71
2022/04/04 12:43:30;;;;;;;59.70;5.33;;;;;;;;;;5093324;28;21016;-72
2022/04/04 12:45:57;;;;;;;60.97;6.60;;;;;;;;;;5093330;28;20543;-72
2022/04/04 12:48:32;;;;;;;62.20;5.20;;;;;;;;;;5092681;28;20542;-72
2022/04/04 12:51:01;;;;;;;61.27;5.80;;;;;;;;;;5093486;28;20817;-71
2022/04/04 12:53:28;;;;;;;60.67;5.60;;;;;;;;;;5093583;28;20529;-72
2022/04/04 12:56:06;;;;;;;62.27;6.60;;;;;;;;;;5093762;28;20450;-70
2022/04/04 12:58:34;;;;;;;61.20;6.33;;;;;;;;;;5093996;28;20467;-69
2022/04/04 13:01:10;;;;;;;61.70;6.80;;;;;;;;;;5093970;28;20948;-71
2022/04/04 13:03:47;;;;;;;60.90;6.30;;;;;;;;;;5094897;28;20570;-69
2022/04/04 13:06:16;;;;;;;66.40;7.30;;;;;;;;;;5093665;28;20448;-71
2022/04/04 13:08:53;;;;;;;61.33;6.60;;;;;;;;;;5093041;28;20473;-71
2022/04/04 13:11:21;;;;;;;61.80;6.40;;;;;;;;;;5094417;28;20456;-72
2022/04/04 13:14:04;;;;;;;61.40;6.80;;;;;;;;;;5094299;28;20456;-71
2022/04/04 13:16:32;;;;;;;61.77;6.43;;;;;;;;;;5094577;28;20452;-72
2022/04/04 13:19:00;;;;;;;64.00;7.53;;;;;;;;;;5093032;28;20507;-72
2022/04/04 13:21:28;;;;;;;62.47;7.30;;;;;;;;;;5096970;28;20449;-72
2022/04/04 13:23:56;;;;;;;67.43;6.50;;;;;;;;;;5094794;28;20579;-72
2022/04/04 13:26:23;;;;;;;62.20;6.87;;;;;;;;;;5095343;28;20897;-71
2022/04/04 13:28:50;;;;;;;63.47;7.20;;;;;;;;;;5091701;28;20462;-71
2022/04/04 13:31:17;;;;;;;61.60;6.80;;;;;;;;;;5092342;28;20444;-70
2022/04/04 13:33:44;;;;;;;62.57;7.47;;;;;;;;;;5092348;28;20445;-71
2022/04/04 13:36:12;;;;;;;62.63;7.20;;;;;;;;;;5092216;28;20512;-71
2022/04/04 13:38:40;;;;;;;62.60;6.70;;;;;;;;;;5091597;28;20556;-70
2022/04/04 13:41:07;;;;;;;61.00;6.40;;;;;;;;;;5092579;28;20821;-71
2022/04/04 13:43:35;;;;;;;61.77;6.77;;;;;;;;;;5092190;28;20928;-71
2022/04/04 13:46:03;;;;;;;62.40;6.50;;;;;;;;;;5092296;28;20450;-71
2022/04/04 13:48:30;;;;;;;61.77;6.70;;;;;;;;;;5091179;28;20867;-71
2022/04/04 13:50:58;;;;;;;61.87;7.50;;;;;;;;;;5092285;28;20452;-70
2022/04/04 13:53:25;;;;;;;62.30;7.77;;;;;;;;;;5091984;28;20433;-69
2022/04/04 13:55:53;;;;;;;61.60;6.67;;;;;;;;;;5092138;28;21007;-71
2022/04/04 13:58:21;;;;;;;66.77;6.70;;;;;;;;;;5090964;28;20967;-71
2022/04/04 14:00:49;;;;;;;62.43;6.20;;;;;;;;;;5092080;28;20448;-72
2022/04/04 14:03:16;;;;;;;62.33;6.30;;;;;;;;;;5092139;28;20482;-70
2022/04/04 14:05:43;;;;;;;61.60;6.60;;;;;;;;;;5091997;28;20490;-71
2022/04/04 14:08:13;;;;;;;61.87;6.60;;;;;;;;;;5091340;28;20479;-71
2022/04/04 14:10:41;;;;;;;61.60;6.90;;;;;;;;;;5091987;28;20447;-71
2022/04/04 14:13:10;;;;;;;62.80;6.90;;;;;;;;;;5091926;28;20446;-71
2022/04/04 14:15:38;;;;;;;62.03;6.63;;;;;;;;;;5092318;28;20456;-70
2022/04/04 14:18:06;;;;;;;61.57;6.70;;;;;;;;;;5091435;28;20481;-71
2022/04/04 14:20:33;;;;;;;60.93;6.40;;;;;;;;;;5092048;28;20456;-72
2022/04/04 14:23:00;;;;;;;60.73;6.30;;;;;;;;;;5091721;28;20982;-69
2022/04/04 14:25:28;;;;;;;60.80;6.20;;;;;;;;;;5093712;28;20459;-72
2022/04/04 14:27:55;;;;;;;62.40;6.80;;;;;;;;;;5092976;28;20567;-69
2022/04/04 14:30:25;;;;;;;61.77;6.20;;;;;;;;;;5093858;28;20463;-72
2022/04/04 14:32:52;;;;;;;62.33;7.10;;;;;;;;;;5095293;28;20443;-73
2022/04/04 14:35:20;;;;;;;62.37;6.70;;;;;;;;;;5096382;28;20451;-70
2022/04/04 14:37:47;;;;;;;63.20;7.70;;;;;;;;;;5097365;28;20585;-70
2022/04/04 14:40:15;;;;;;;62.33;6.93;;;;;;;;;;5094075;28;20450;-70